sensor_id;sensor_type;location;lat;lon;timestamp;pressure;altitude;pressure_sealevel;temperature;humidity
61292;BME280;47165;42.664;23.368;2023-05-10T00:02:23;95293.41;;;11.88;79.63
61292;BME280;47165;42.664;23.368;2023-05-10T00:04:48;95296.28;;;11.99;79.42
61292;BME280;47165;42.664;23.368;2023-05-10T00:07:13;95292.16;;;11.95;78.84
61292;BME280;47165;42.664;23.368;2023-05-10T00:09:39;95284.63;;;12.05;78.90
61292;BME280;47165;42.664;23.368;2023-05-10T00:12:05;95292.19;;;12.10;78.43
61292;BME280;47165;42.664;23.368;2023-05-10T00:14:30;95283.16;;;12.15;78.06
61292;BME280;47165;42.664;23.368;2023-05-10T00:16:56;95282.78;;;12.21;77.62
61292;BME280;47165;42.664;23.368;2023-05-10T00:19:21;95274.38;;;12.16;76.64
61292;BME280;47165;42.664;23.368;2023-05-10T00:21:47;95274.34;;;12.02;76.37
61292;BME280;47165;42.664;23.368;2023-05-10T00:24:12;95287.06;;;12.08;77.62
61292;BME280;47165;42.664;23.368;2023-05-10T00:26:38;95278.19;;;12.11;77.15
61292;BME280;47165;42.664;23.368;2023-05-10T00:29:03;95282.28;;;11.84;76.37
61292;BME280;47165;42.664;23.368;2023-05-10T00:31:29;95282.47;;;11.81;77.88
61292;BME280;47165;42.664;23.368;2023-05-10T00:33:54;95275.38;;;11.83;78.20
61292;BME280;47165;42.664;23.368;2023-05-10T00:36:20;95278.59;;;11.88;77.72
61292;BME280;47165;42.664;23.368;2023-05-10T00:38:46;95276.56;;;11.94;78.06
61292;BME280;47165;42.664;23.368;2023-05-10T00:41:11;95275.53;;;11.96;77.64
61292;BME280;47165;42.664;23.368;2023-05-10T00:43:37;95271.88;;;11.99;76.83
61292;BME280;47165;42.664;23.368;2023-05-10T00:46:03;95272.63;;;12.01;77.74
61292;BME280;47165;42.664;23.368;2023-05-10T00:48:29;95268.44;;;11.82;76.16
61292;BME280;47165;42.664;23.368;2023-05-10T00:50:55;95275.06;;;11.90;77.67
61292;BME280;47165;42.664;23.368;2023-05-10T00:53:21;95262.53;;;11.95;77.29
61292;BME280;47165;42.664;23.368;2023-05-10T00:55:46;95268.00;;;12.06;77.61
61292;BME280;47165;42.664;23.368;2023-05-10T00:58:12;95265.38;;;12.06;76.61
61292;BME280;47165;42.664;23.368;2023-05-10T01:00:39;95263.16;;;12.14;75.59
61292;BME280;47165;42.664;23.368;2023-05-10T01:03:06;95263.50;;;12.08;75.60
61292;BME280;47165;42.664;23.368;2023-05-10T01:05:31;95267.63;;;12.12;75.71
61292;BME280;47165;42.664;23.368;2023-05-10T01:07:57;95273.03;;;12.09;74.94
61292;BME280;47165;42.664;23.368;2023-05-10T01:10:22;95262.91;;;12.03;75.26
61292;BME280;47165;42.664;23.368;2023-05-10T01:12:48;95263.69;;;12.05;76.08
61292;BME280;47165;42.664;23.368;2023-05-10T01:15:14;95264.91;;;11.83;75.95
61292;BME280;47165;42.664;23.368;2023-05-10T01:17:43;95257.81;;;11.85;75.98
61292;BME280;47165;42.664;23.368;2023-05-10T01:20:10;95255.94;;;11.87;76.09
61292;BME280;47165;42.664;23.368;2023-05-10T01:31:12;95252.81;;;11.81;75.39
61292;BME280;47165;42.664;23.368;2023-05-10T01:34:09;95254.44;;;11.83;76.15
61292;BME280;47165;42.664;23.368;2023-05-10T01:36:49;95253.25;;;11.89;75.70
61292;BME280;47165;42.664;23.368;2023-05-10T01:39:43;95247.69;;;11.79;75.90
61292;BME280;47165;42.664;23.368;2023-05-10T01:42:14;95239.75;;;11.81;75.67
61292;BME280;47165;42.664;23.368;2023-05-10T01:45:02;95242.72;;;11.91;75.75
61292;BME280;47165;42.664;23.368;2023-05-10T01:48:08;95240.91;;;11.91;75.47
61292;BME280;47165;42.664;23.368;2023-05-10T01:50:36;95234.69;;;11.94;75.08
61292;BME280;47165;42.664;23.368;2023-05-10T01:53:06;95238.69;;;11.99;74.50
61292;BME280;47165;42.664;23.368;2023-05-10T01:55:36;95246.38;;;12.02;75.04
61292;BME280;47165;42.664;23.368;2023-05-10T01:58:10;95236.63;;;11.90;74.91
61292;BME280;47165;42.664;23.368;2023-05-10T02:00:42;95243.66;;;11.90;74.57
61292;BME280;47165;42.664;23.368;2023-05-10T02:03:09;95251.44;;;11.75;74.06
61292;BME280;47165;42.664;23.368;2023-05-10T02:05:36;95244.03;;;11.52;73.17
61292;BME280;47165;42.664;23.368;2023-05-10T02:08:05;95238.66;;;11.55;73.26
61292;BME280;47165;42.664;23.368;2023-05-10T02:10:34;95255.53;;;11.49;74.48
61292;BME280;47165;42.664;23.368;2023-05-10T02:13:02;95255.03;;;11.11;71.87
61292;BME280;47165;42.664;23.368;2023-05-10T02:15:29;95244.59;;;11.11;73.34
61292;BME280;47165;42.664;23.368;2023-05-10T02:17:55;95256.72;;;11.12;72.88
61292;BME280;47165;42.664;23.368;2023-05-10T02:20:22;95251.31;;;10.99;73.03
61292;BME280;47165;42.664;23.368;2023-05-10T02:22:52;95254.38;;;10.91;71.90
61292;BME280;47165;42.664;23.368;2023-05-10T02:25:19;95249.78;;;10.63;70.23
61292;BME280;47165;42.664;23.368;2023-05-10T02:27:47;95242.53;;;10.68;70.43
61292;BME280;47165;42.664;23.368;2023-05-10T02:30:13;95255.00;;;10.63;72.26
61292;BME280;47165;42.664;23.368;2023-05-10T02:32:40;95261.88;;;10.48;69.60
61292;BME280;47165;42.664;23.368;2023-05-10T02:35:07;95258.06;;;10.38;68.45
61292;BME280;47165;42.664;23.368;2023-05-10T02:37:34;95262.38;;;10.55;70.42
61292;BME280;47165;42.664;23.368;2023-05-10T02:40:02;95260.75;;;10.36;69.92
61292;BME280;47165;42.664;23.368;2023-05-10T02:42:33;95269.59;;;10.34;70.46
61292;BME280;47165;42.664;23.368;2023-05-10T02:45:01;95255.78;;;9.97;68.40
61292;BME280;47165;42.664;23.368;2023-05-10T02:47:28;95254.25;;;9.93;68.43
61292;BME280;47165;42.664;23.368;2023-05-10T02:49:55;95257.00;;;10.07;69.99
61292;BME280;47165;42.664;23.368;2023-05-10T02:52:26;95253.63;;;10.05;69.13
61292;BME280;47165;42.664;23.368;2023-05-10T02:54:55;95242.66;;;9.81;67.46
61292;BME280;47165;42.664;23.368;2023-05-10T02:57:29;95249.78;;;9.95;69.89
61292;BME280;47165;42.664;23.368;2023-05-10T02:59:56;95254.78;;;9.99;71.00
61292;BME280;47165;42.664;23.368;2023-05-10T03:02:22;95253.63;;;9.87;70.22
61292;BME280;47165;42.664;23.368;2023-05-10T03:04:48;95252.72;;;9.89;70.29
61292;BME280;47165;42.664;23.368;2023-05-10T03:07:13;95243.88;;;9.74;68.40
61292;BME280;47165;42.664;23.368;2023-05-10T03:09:39;95259.00;;;9.84;70.06
61292;BME280;47165;42.664;23.368;2023-05-10T03:12:33;95255.00;;;9.77;70.56
61292;BME280;47165;42.664;23.368;2023-05-10T03:15:22;95251.78;;;9.72;69.92
61292;BME280;47165;42.664;23.368;2023-05-10T03:18:01;95257.00;;;9.90;71.97
61292;BME280;47165;42.664;23.368;2023-05-10T03:20:39;95256.81;;;10.10;73.23
61292;BME280;47165;42.664;23.368;2023-05-10T03:23:27;95260.25;;;10.28;72.99
61292;BME280;47165;42.664;23.368;2023-05-10T03:25:55;95256.88;;;10.26;72.94
61292;BME280;47165;42.664;23.368;2023-05-10T03:28:21;95259.75;;;10.21;72.79
61292;BME280;47165;42.664;23.368;2023-05-10T03:30:47;95261.16;;;10.27;73.54
61292;BME280;47165;42.664;23.368;2023-05-10T03:33:13;95259.22;;;10.32;73.34
61292;BME280;47165;42.664;23.368;2023-05-10T03:35:39;95258.91;;;10.38;73.04
61292;BME280;47165;42.664;23.368;2023-05-10T03:38:04;95265.72;;;10.41;71.94
61292;BME280;47165;42.664;23.368;2023-05-10T03:40:30;95269.03;;;10.44;71.96
61292;BME280;47165;42.664;23.368;2023-05-10T03:42:57;95267.69;;;10.53;72.15
61292;BME280;47165;42.664;23.368;2023-05-10T03:45:23;95261.22;;;10.60;72.04
61292;BME280;47165;42.664;23.368;2023-05-10T03:47:48;95256.66;;;10.64;72.67
61292;BME280;47165;42.664;23.368;2023-05-10T03:50:14;95266.28;;;10.63;71.69
61292;BME280;47165;42.664;23.368;2023-05-10T03:52:39;95261.69;;;10.51;70.34
61292;BME280;47165;42.664;23.368;2023-05-10T03:55:05;95266.47;;;10.43;72.01
61292;BME280;47165;42.664;23.368;2023-05-10T03:57:31;95269.84;;;10.45;71.23
61292;BME280;47165;42.664;23.368;2023-05-10T03:59:57;95262.09;;;10.43;72.44
61292;BME280;47165;42.664;23.368;2023-05-10T04:02:22;95276.34;;;10.54;71.65
61292;BME280;47165;42.664;23.368;2023-05-10T04:04:48;95277.00;;;10.41;71.09
61292;BME280;47165;42.664;23.368;2023-05-10T04:07:13;95283.84;;;10.44;71.06
61292;BME280;47165;42.664;23.368;2023-05-10T04:09:39;95279.91;;;10.53;71.67
61292;BME280;47165;42.664;23.368;2023-05-10T04:12:04;95272.03;;;10.37;69.70
61292;BME280;47165;42.664;23.368;2023-05-10T04:14:30;95279.53;;;10.43;71.64
61292;BME280;47165;42.664;23.368;2023-05-10T04:16:56;95285.53;;;10.45;71.95
61292;BME280;47165;42.664;23.368;2023-05-10T04:19:21;95282.91;;;10.45;71.48
61292;BME280;47165;42.664;23.368;2023-05-10T04:21:46;95279.38;;;10.46;71.11
61292;BME280;47165;42.664;23.368;2023-05-10T04:24:12;95285.19;;;10.51;71.81
61292;BME280;47165;42.664;23.368;2023-05-10T04:26:37;95285.81;;;10.56;71.97
61292;BME280;47165;42.664;23.368;2023-05-10T04:29:03;95283.22;;;10.39;71.45
61292;BME280;47165;42.664;23.368;2023-05-10T04:31:28;95287.50;;;10.22;70.62
61292;BME280;47165;42.664;23.368;2023-05-10T04:33:54;95289.88;;;10.27;72.24
61292;BME280;47165;42.664;23.368;2023-05-10T04:36:19;95283.47;;;10.34;72.10
61292;BME280;47165;42.664;23.368;2023-05-10T04:38:45;95289.06;;;10.44;69.59
61292;BME280;47165;42.664;23.368;2023-05-10T04:41:10;95292.88;;;10.54;71.04
61292;BME280;47165;42.664;23.368;2023-05-10T04:43:37;95289.34;;;10.55;71.85
61292;BME280;47165;42.664;23.368;2023-05-10T04:46:03;95288.66;;;10.52;70.83
61292;BME280;47165;42.664;23.368;2023-05-10T04:48:29;95291.13;;;10.37;70.62
61292;BME280;47165;42.664;23.368;2023-05-10T04:50:54;95284.59;;;10.46;72.64
61292;BME280;47165;42.664;23.368;2023-05-10T04:53:20;95287.50;;;10.57;72.52
61292;BME280;47165;42.664;23.368;2023-05-10T04:55:46;95290.53;;;10.65;72.43
61292;BME280;47165;42.664;23.368;2023-05-10T04:58:12;95294.44;;;10.74;71.54
61292;BME280;47165;42.664;23.368;2023-05-10T05:00:37;95283.91;;;10.76;71.21
61292;BME280;47165;42.664;23.368;2023-05-10T05:03:03;95280.22;;;10.80;69.68
61292;BME280;47165;42.664;23.368;2023-05-10T05:05:28;95279.50;;;10.60;70.59
61292;BME280;47165;42.664;23.368;2023-05-10T05:07:53;95285.75;;;10.74;71.48
61292;BME280;47165;42.664;23.368;2023-05-10T05:10:19;95277.66;;;10.78;68.92
61292;BME280;47165;42.664;23.368;2023-05-10T05:12:44;95291.03;;;10.56;70.49
61292;BME280;47165;42.664;23.368;2023-05-10T05:15:10;95287.94;;;10.65;72.51
61292;BME280;47165;42.664;23.368;2023-05-10T05:17:36;95299.81;;;10.71;71.70
61292;BME280;47165;42.664;23.368;2023-05-10T05:20:02;95292.56;;;10.76;71.60
61292;BME280;47165;42.664;23.368;2023-05-10T05:22:28;95291.75;;;10.76;70.91
61292;BME280;47165;42.664;23.368;2023-05-10T05:24:54;95286.13;;;10.83;71.14
61292;BME280;47165;42.664;23.368;2023-05-10T05:27:20;95301.28;;;10.93;70.88
61292;BME280;47165;42.664;23.368;2023-05-10T05:29:49;95296.16;;;10.91;69.86
61292;BME280;47165;42.664;23.368;2023-05-10T05:32:15;95302.91;;;10.95;70.77
61292;BME280;47165;42.664;23.368;2023-05-10T05:34:40;95304.44;;;10.99;70.25
61292;BME280;47165;42.664;23.368;2023-05-10T05:37:06;95307.81;;;11.01;69.34
61292;BME280;47165;42.664;23.368;2023-05-10T05:39:31;95304.91;;;10.90;68.29
61292;BME280;47165;42.664;23.368;2023-05-10T05:41:56;95310.41;;;11.01;69.91
61292;BME280;47165;42.664;23.368;2023-05-10T05:44:22;95303.50;;;11.00;69.96
61292;BME280;47165;42.664;23.368;2023-05-10T05:46:47;95299.22;;;10.99;69.81
61292;BME280;47165;42.664;23.368;2023-05-10T05:49:12;95302.66;;;11.00;70.46
61292;BME280;47165;42.664;23.368;2023-05-10T05:51:38;95308.66;;;11.02;70.42
61292;BME280;47165;42.664;23.368;2023-05-10T05:54:03;95303.34;;;11.03;71.52
61292;BME280;47165;42.664;23.368;2023-05-10T05:56:29;95315.97;;;10.95;71.30
61292;BME280;47165;42.664;23.368;2023-05-10T05:58:55;95313.19;;;10.98;71.99
61292;BME280;47165;42.664;23.368;2023-05-10T06:01:20;95312.09;;;11.02;71.11
61292;BME280;47165;42.664;23.368;2023-05-10T06:03:46;95318.25;;;11.01;70.57
61292;BME280;47165;42.664;23.368;2023-05-10T06:06:11;95322.28;;;11.07;71.11
61292;BME280;47165;42.664;23.368;2023-05-10T06:08:37;95314.03;;;10.65;71.88
61292;BME280;47165;42.664;23.368;2023-05-10T06:11:03;95323.47;;;10.68;71.75
61292;BME280;47165;42.664;23.368;2023-05-10T06:13:29;95321.84;;;10.83;71.83
61292;BME280;47165;42.664;23.368;2023-05-10T06:16:00;95321.41;;;10.75;72.12
61292;BME280;47165;42.664;23.368;2023-05-10T06:18:25;95317.84;;;10.76;71.18
61292;BME280;47165;42.664;23.368;2023-05-10T06:20:51;95320.97;;;10.82;71.86
61292;BME280;47165;42.664;23.368;2023-05-10T06:23:17;95320.75;;;10.87;72.06
61292;BME280;47165;42.664;23.368;2023-05-10T06:25:42;95328.41;;;10.90;71.62
61292;BME280;47165;42.664;23.368;2023-05-10T06:28:08;95322.72;;;10.99;71.25
61292;BME280;47165;42.664;23.368;2023-05-10T06:30:33;95332.31;;;10.65;70.43
61292;BME280;47165;42.664;23.368;2023-05-10T06:32:58;95329.75;;;10.81;72.46
61292;BME280;47165;42.664;23.368;2023-05-10T06:35:24;95330.28;;;10.88;72.31
61292;BME280;47165;42.664;23.368;2023-05-10T06:37:50;95335.44;;;10.90;72.17
61292;BME280;47165;42.664;23.368;2023-05-10T06:40:16;95323.38;;;10.87;70.99
61292;BME280;47165;42.664;23.368;2023-05-10T06:42:41;95329.88;;;10.96;70.48
61292;BME280;47165;42.664;23.368;2023-05-10T06:45:07;95329.03;;;10.95;71.61
61292;BME280;47165;42.664;23.368;2023-05-10T06:47:33;95327.00;;;11.00;71.93
61292;BME280;47165;42.664;23.368;2023-05-10T06:49:59;95313.19;;;10.98;71.10
61292;BME280;47165;42.664;23.368;2023-05-10T06:52:24;95330.19;;;10.90;71.82
61292;BME280;47165;42.664;23.368;2023-05-10T06:54:50;95323.50;;;11.01;71.49
61292;BME280;47165;42.664;23.368;2023-05-10T06:57:15;95316.47;;;11.02;71.12
61292;BME280;47165;42.664;23.368;2023-05-10T06:59:41;95322.97;;;11.11;71.66
61292;BME280;47165;42.664;23.368;2023-05-10T07:02:06;95323.22;;;11.06;70.73
61292;BME280;47165;42.664;23.368;2023-05-10T07:04:31;95329.97;;;11.10;70.62
61292;BME280;47165;42.664;23.368;2023-05-10T07:06:57;95329.22;;;11.08;69.58
61292;BME280;47165;42.664;23.368;2023-05-10T07:09:23;95330.38;;;11.02;69.47
61292;BME280;47165;42.664;23.368;2023-05-10T07:11:49;95340.91;;;11.01;68.59
61292;BME280;47165;42.664;23.368;2023-05-10T07:14:15;95336.63;;;11.00;68.71
61292;BME280;47165;42.664;23.368;2023-05-10T07:16:40;95327.34;;;10.61;69.19
61292;BME280;47165;42.664;23.368;2023-05-10T07:19:05;95336.63;;;10.66;67.65
61292;BME280;47165;42.664;23.368;2023-05-10T07:21:31;95335.91;;;10.80;68.58
61292;BME280;47165;42.664;23.368;2023-05-10T07:23:57;95337.66;;;10.80;68.86
61292;BME280;47165;42.664;23.368;2023-05-10T07:26:22;95339.88;;;10.54;68.93
61292;BME280;47165;42.664;23.368;2023-05-10T07:28:49;95340.34;;;10.62;69.82
61292;BME280;47165;42.664;23.368;2023-05-10T07:31:14;95335.09;;;10.62;68.32
61292;BME280;47165;42.664;23.368;2023-05-10T07:33:40;95342.19;;;10.76;69.43
61292;BME280;47165;42.664;23.368;2023-05-10T07:36:05;95349.56;;;10.52;68.19
61292;BME280;47165;42.664;23.368;2023-05-10T07:38:31;95354.59;;;10.73;69.39
61292;BME280;47165;42.664;23.368;2023-05-10T07:40:56;95362.38;;;10.90;69.33
61292;BME280;47165;42.664;23.368;2023-05-10T07:43:22;95354.16;;;10.98;68.74
61292;BME280;47165;42.664;23.368;2023-05-10T07:45:47;95363.66;;;10.99;69.44
61292;BME280;47165;42.664;23.368;2023-05-10T07:48:13;95352.81;;;11.06;68.11
61292;BME280;47165;42.664;23.368;2023-05-10T07:50:38;95350.81;;;11.12;69.05
61292;BME280;47165;42.664;23.368;2023-05-10T07:53:03;95347.94;;;11.16;67.67
61292;BME280;47165;42.664;23.368;2023-05-10T07:55:29;95355.38;;;11.24;69.05
61292;BME280;47165;42.664;23.368;2023-05-10T07:57:54;95357.72;;;11.13;69.11
61292;BME280;47165;42.664;23.368;2023-05-10T08:00:20;95356.63;;;11.17;69.00
61292;BME280;47165;42.664;23.368;2023-05-10T08:02:46;95352.81;;;11.06;66.18
61292;BME280;47165;42.664;23.368;2023-05-10T08:05:12;95362.88;;;11.14;68.57
61292;BME280;47165;42.664;23.368;2023-05-10T08:07:38;95361.00;;;11.16;66.64
61292;BME280;47165;42.664;23.368;2023-05-10T08:10:05;95355.38;;;11.24;66.99
61292;BME280;47165;42.664;23.368;2023-05-10T08:12:30;95357.72;;;11.13;66.91
61292;BME280;47165;42.664;23.368;2023-05-10T08:14:56;95352.16;;;11.19;67.90
61292;BME280;47165;42.664;23.368;2023-05-10T08:17:22;95360.31;;;11.13;66.87
61292;BME280;47165;42.664;23.368;2023-05-10T08:19:47;95358.91;;;11.23;67.81
61292;BME280;47165;42.664;23.368;2023-05-10T08:22:12;95356.81;;;11.14;66.18
61292;BME280;47165;42.664;23.368;2023-05-10T08:24:38;95359.06;;;11.04;68.48
61292;BME280;47165;42.664;23.368;2023-05-10T08:27:07;95357.06;;;11.25;68.07
61292;BME280;47165;42.664;23.368;2023-05-10T08:29:33;95355.13;;;11.28;67.38
61292;BME280;47165;42.664;23.368;2023-05-10T08:31:59;95365.00;;;11.39;68.35
61292;BME280;47165;42.664;23.368;2023-05-10T08:34:26;95362.72;;;11.33;66.97
61292;BME280;47165;42.664;23.368;2023-05-10T08:36:51;95367.59;;;11.39;65.80
61292;BME280;47165;42.664;23.368;2023-05-10T08:39:17;95360.53;;;11.41;66.15
61292;BME280;47165;42.664;23.368;2023-05-10T08:41:44;95361.13;;;11.46;67.57
61292;BME280;47165;42.664;23.368;2023-05-10T08:44:12;95362.81;;;11.47;67.93
61292;BME280;47165;42.664;23.368;2023-05-10T08:46:41;95364.00;;;11.58;67.95
61292;BME280;47165;42.664;23.368;2023-05-10T08:49:10;95359.44;;;11.61;69.39
61292;BME280;47165;42.664;23.368;2023-05-10T08:51:40;95362.13;;;11.28;66.51
61292;BME280;47165;42.664;23.368;2023-05-10T08:54:07;95369.19;;;11.42;68.75
61292;BME280;47165;42.664;23.368;2023-05-10T08:56:33;95369.13;;;11.43;70.59
61292;BME280;47165;42.664;23.368;2023-05-10T08:58:58;95356.31;;;11.55;69.67
61292;BME280;47165;42.664;23.368;2023-05-10T09:01:24;95362.66;;;11.51;68.67
61292;BME280;47165;42.664;23.368;2023-05-10T09:03:50;95366.03;;;11.53;69.66
61292;BME280;47165;42.664;23.368;2023-05-10T09:06:16;95361.28;;;11.43;69.05
61292;BME280;47165;42.664;23.368;2023-05-10T09:08:42;95368.72;;;11.67;69.41
61292;BME280;47165;42.664;23.368;2023-05-10T09:11:08;95369.47;;;11.69;67.46
61292;BME280;47165;42.664;23.368;2023-05-10T09:13:35;95362.28;;;11.73;68.47
61292;BME280;47165;42.664;23.368;2023-05-10T09:16:03;95363.16;;;11.57;69.46
61292;BME280;47165;42.664;23.368;2023-05-10T09:18:28;95360.78;;;11.68;69.43
61292;BME280;47165;42.664;23.368;2023-05-10T09:20:54;95356.28;;;11.86;68.76
61292;BME280;47165;42.664;23.368;2023-05-10T09:23:20;95358.34;;;11.81;66.03
61292;BME280;47165;42.664;23.368;2023-05-10T09:25:45;95348.22;;;11.75;65.87
61292;BME280;47165;42.664;23.368;2023-05-10T09:28:11;95356.41;;;11.69;66.52
61292;BME280;47165;42.664;23.368;2023-05-10T09:30:37;95360.94;;;11.81;66.34
61292;BME280;47165;42.664;23.368;2023-05-10T09:33:02;95350.50;;;11.81;64.00
61292;BME280;47165;42.664;23.368;2023-05-10T09:35:30;95354.03;;;11.96;66.16
61292;BME280;47165;42.664;23.368;2023-05-10T09:37:59;95343.84;;;11.92;65.13
61292;BME280;47165;42.664;23.368;2023-05-10T09:40:27;95348.78;;;12.12;65.59
61292;BME280;47165;42.664;23.368;2023-05-10T09:43:07;95345.81;;;12.18;64.76
61292;BME280;47165;42.664;23.368;2023-05-10T09:45:35;95350.75;;;12.23;65.51
61292;BME280;47165;42.664;23.368;2023-05-10T09:48:02;95352.72;;;12.19;63.71
61292;BME280;47165;42.664;23.368;2023-05-10T09:50:29;95348.66;;;12.14;64.51
61292;BME280;47165;42.664;23.368;2023-05-10T09:55:24;95337.75;;;12.21;64.44
61292;BME280;47165;42.664;23.368;2023-05-10T09:57:59;95336.19;;;11.87;64.82
61292;BME280;47165;42.664;23.368;2023-05-10T10:00:26;95341.84;;;12.11;66.85
61292;BME280;47165;42.664;23.368;2023-05-10T10:02:57;95337.66;;;11.93;64.99
61292;BME280;47165;42.664;23.368;2023-05-10T10:05:33;95333.38;;;11.92;64.41
61292;BME280;47165;42.664;23.368;2023-05-10T10:07:59;95332.25;;;11.96;65.34
61292;BME280;47165;42.664;23.368;2023-05-10T10:10:26;95323.88;;;12.05;64.32
61292;BME280;47165;42.664;23.368;2023-05-10T10:12:52;95329.50;;;12.13;65.25
61292;BME280;47165;42.664;23.368;2023-05-10T10:15:18;95325.31;;;12.11;65.75
61292;BME280;47165;42.664;23.368;2023-05-10T10:17:44;95318.28;;;12.11;65.62
61292;BME280;47165;42.664;23.368;2023-05-10T10:20:10;95313.34;;;12.21;64.82
61292;BME280;47165;42.664;23.368;2023-05-10T10:22:37;95315.63;;;12.27;65.37
61292;BME280;47165;42.664;23.368;2023-05-10T10:25:04;95318.31;;;12.25;62.71
61292;BME280;47165;42.664;23.368;2023-05-10T10:35:52;95317.16;;;12.45;64.47
61292;BME280;47165;42.664;23.368;2023-05-10T10:38:18;95318.00;;;12.46;63.32
61292;BME280;47165;42.664;23.368;2023-05-10T10:40:43;95323.44;;;12.57;62.77
61292;BME280;47165;42.664;23.368;2023-05-10T10:43:26;95326.22;;;12.54;64.37
61292;BME280;47165;42.664;23.368;2023-05-10T10:46:11;95327.38;;;12.64;63.73
61292;BME280;47165;42.664;23.368;2023-05-10T10:48:41;95324.66;;;12.52;61.51
61292;BME280;47165;42.664;23.368;2023-05-10T10:51:13;95319.50;;;12.64;61.58
61292;BME280;47165;42.664;23.368;2023-05-10T10:53:40;95320.84;;;12.72;62.31
61292;BME280;47165;42.664;23.368;2023-05-10T10:56:08;95324.38;;;12.85;63.00
61292;BME280;47165;42.664;23.368;2023-05-10T10:58:36;95315.97;;;12.80;59.56
61292;BME280;47165;42.664;23.368;2023-05-10T11:03:39;95330.56;;;12.55;58.75
61292;BME280;47165;42.664;23.368;2023-05-10T11:06:05;95325.94;;;12.44;59.27
61292;BME280;47165;42.664;23.368;2023-05-10T11:08:32;95315.38;;;12.46;60.43
61292;BME280;47165;42.664;23.368;2023-05-10T11:16:20;95318.41;;;12.83;60.16
61292;BME280;47165;42.664;23.368;2023-05-10T11:19:07;95322.22;;;12.92;59.99
61292;BME280;47165;42.664;23.368;2023-05-10T11:21:33;95316.63;;;12.98;59.72
61292;BME280;47165;42.664;23.368;2023-05-10T11:24:00;95314.66;;;12.87;60.29
61292;BME280;47165;42.664;23.368;2023-05-10T11:26:32;95317.47;;;12.98;60.20
61292;BME280;47165;42.664;23.368;2023-05-10T11:28:59;95323.47;;;13.00;59.70
61292;BME280;47165;42.664;23.368;2023-05-10T11:31:26;95317.84;;;13.06;60.63
61292;BME280;47165;42.664;23.368;2023-05-10T11:33:56;95319.91;;;13.01;60.68
61292;BME280;47165;42.664;23.368;2023-05-10T11:36:27;95324.09;;;13.18;60.48
61292;BME280;47165;42.664;23.368;2023-05-10T11:38:53;95327.97;;;12.84;60.54
61292;BME280;47165;42.664;23.368;2023-05-10T11:41:20;95325.97;;;13.02;60.89
61292;BME280;47165;42.664;23.368;2023-05-10T11:43:52;95319.72;;;12.90;61.80
61292;BME280;47165;42.664;23.368;2023-05-10T11:46:21;95318.22;;;13.15;61.05
61292;BME280;47165;42.664;23.368;2023-05-10T11:48:51;95322.81;;;13.11;60.75
61292;BME280;47165;42.664;23.368;2023-05-10T11:51:21;95325.13;;;12.73;60.07
61292;BME280;47165;42.664;23.368;2023-05-10T11:53:47;95323.56;;;12.70;61.52
61292;BME280;47165;42.664;23.368;2023-05-10T11:56:14;95309.47;;;12.42;60.97
61292;BME280;47165;42.664;23.368;2023-05-10T11:58:39;95312.97;;;12.57;60.63
61292;BME280;47165;42.664;23.368;2023-05-10T12:01:06;95300.41;;;12.62;60.94
61292;BME280;47165;42.664;23.368;2023-05-10T12:03:32;95316.34;;;12.59;60.60
61292;BME280;47165;42.664;23.368;2023-05-10T12:05:59;95314.06;;;12.39;60.50
61292;BME280;47165;42.664;23.368;2023-05-10T12:08:28;95309.78;;;12.52;61.21
61292;BME280;47165;42.664;23.368;2023-05-10T12:11:06;95303.03;;;12.48;60.17
61292;BME280;47165;42.664;23.368;2023-05-10T12:13:31;95296.84;;;12.35;60.51
61292;BME280;47165;42.664;23.368;2023-05-10T12:15:58;95307.22;;;12.51;60.63
61292;BME280;47165;42.664;23.368;2023-05-10T12:18:24;95304.91;;;12.46;60.76
61292;BME280;47165;42.664;23.368;2023-05-10T12:20:52;95296.28;;;12.44;61.16
61292;BME280;47165;42.664;23.368;2023-05-10T12:23:19;95295.53;;;12.42;62.14
61292;BME280;47165;42.664;23.368;2023-05-10T12:25:45;95296.19;;;12.31;60.83
61292;BME280;47165;42.664;23.368;2023-05-10T12:28:11;95295.63;;;12.40;61.86
61292;BME280;47165;42.664;23.368;2023-05-10T12:30:37;95293.13;;;12.53;61.60
61292;BME280;47165;42.664;23.368;2023-05-10T12:33:10;95285.81;;;12.58;60.37
61292;BME280;47165;42.664;23.368;2023-05-10T12:35:47;95297.13;;;12.59;60.88
61292;BME280;47165;42.664;23.368;2023-05-10T12:38:25;95287.53;;;12.74;60.27
61292;BME280;47165;42.664;23.368;2023-05-10T12:40:51;95288.91;;;12.65;59.22
61292;BME280;47165;42.664;23.368;2023-05-10T12:43:16;95284.91;;;12.88;59.60
61292;BME280;47165;42.664;23.368;2023-05-10T12:45:41;95274.69;;;12.83;59.66
61292;BME280;47165;42.664;23.368;2023-05-10T12:48:07;95279.47;;;12.91;59.64
61292;BME280;47165;42.664;23.368;2023-05-10T12:50:32;95277.97;;;12.87;59.77
61292;BME280;47165;42.664;23.368;2023-05-10T12:52:58;95282.44;;;12.99;59.06
61292;BME280;47165;42.664;23.368;2023-05-10T12:55:23;95279.75;;;13.01;58.61
61292;BME280;47165;42.664;23.368;2023-05-10T12:57:48;95274.81;;;12.82;58.68
61292;BME280;47165;42.664;23.368;2023-05-10T13:00:14;95269.72;;;12.93;58.89
61292;BME280;47165;42.664;23.368;2023-05-10T13:02:40;95260.00;;;12.95;58.61
61292;BME280;47165;42.664;23.368;2023-05-10T13:05:06;95258.69;;;12.88;58.95
61292;BME280;47165;42.664;23.368;2023-05-10T13:07:31;95254.75;;;12.95;60.12
61292;BME280;47165;42.664;23.368;2023-05-10T13:09:56;95259.59;;;13.01;59.42
61292;BME280;47165;42.664;23.368;2023-05-10T13:12:22;95262.88;;;13.05;59.37
61292;BME280;47165;42.664;23.368;2023-05-10T13:14:47;95263.25;;;13.13;59.07
61292;BME280;47165;42.664;23.368;2023-05-10T13:17:13;95258.94;;;13.12;59.63
61292;BME280;47165;42.664;23.368;2023-05-10T13:19:38;95264.41;;;12.95;60.12